Time;durP1;ratioP1;P1;durP2;ratioP2;P2;SDS_P1;SDS_P2;PMS_P1;PMS_P2;Temp;Humidity;BMP_temperature;BMP_pressure;BME280_temperature;BME280_humidity;BME280_pressure;Samples;Min_cycle;Max_cycle;Signal;HPM_P1;HPM_P2
2021/12/02 00:04:13;;;;;;;3.15;0.57;;;15.90;46.10;;;;;;20741557;28;20387;-75
2021/12/02 00:14:21;;;;;;;1.73;0.60;;;15.90;46.10;;;;;;20724719;28;20488;-75
2021/12/02 00:24:24;;;;;;;3.03;0.73;;;15.80;46.10;;;;;;20726980;28;20050;-75
2021/12/02 00:34:25;;;;;;;2.92;0.60;;;15.80;46.10;;;;;;20741345;28;20034;-76
2021/12/02 00:44:26;;;;;;;2.03;0.52;;;15.80;46.00;;;;;;20757639;28;20112;-75
2021/12/02 00:54:26;;;;;;;4.07;0.47;;;15.80;45.90;;;;;;20738829;28;20121;-78
2021/12/02 01:04:27;;;;;;;3.20;0.68;;;15.80;45.90;;;;;;20755695;28;20716;-75
2021/12/02 01:14:28;;;;;;;1.35;0.63;;;15.70;45.80;;;;;;20720353;28;20447;-76
2021/12/02 01:24:29;;;;;;;2.45;0.47;;;15.70;45.80;;;;;;20754567;28;20037;-74
2021/12/02 01:34:30;;;;;;;0.28;0.20;;;15.70;45.80;;;;;;20737477;28;20061;-74
2021/12/02 01:44:30;;;;;;;2.35;0.45;;;15.70;45.70;;;;;;20735216;28;20753;-74
2021/12/02 01:54:31;;;;;;;1.55;0.63;;;15.70;45.70;;;;;;20734619;28;20061;-74
2021/12/02 02:04:32;;;;;;;2.03;0.55;;;15.60;45.70;;;;;;20734615;28;20107;-75
2021/12/02 02:14:32;;;;;;;5.20;0.57;;;15.60;45.80;;;;;;20733841;28;20133;-74
2021/12/02 02:24:33;;;;;;;2.42;0.50;;;15.60;45.80;;;;;;20731989;28;20129;-74
2021/12/02 02:34:35;;;;;;;1.27;0.40;;;15.60;45.90;;;;;;20732691;28;20045;-74
2021/12/02 02:44:35;;;;;;;2.10;0.57;;;15.50;46.00;;;;;;20747091;28;20038;-74
2021/12/02 02:54:36;;;;;;;1.38;0.30;;;15.50;46.10;;;;;;20731014;28;20037;-74
2021/12/02 03:04:53;;;;;;;2.03;0.60;;;15.50;46.80;;;;;;20730553;28;20469;-73
2021/12/02 03:25:03;;;;;;;4.18;1.15;;;15.50;46.40;;;;;;20730623;28;20040;-74
2021/12/02 03:35:05;;;;;;;3.72;0.45;;;15.40;46.50;;;;;;20737454;28;20072;-74
2021/12/02 03:45:07;;;;;;;2.50;0.57;;;15.40;46.70;;;;;;20729212;28;20108;-74
2021/12/02 03:55:08;;;;;;;0.30;0.15;;;15.40;46.70;;;;;;20744572;28;20038;-75
2021/12/02 04:05:09;;;;;;;0.75;0.40;;;15.30;46.80;;;;;;20759954;28;20472;-74
2021/12/02 04:15:14;;;;;;;0.93;0.35;;;15.20;46.70;;;;;;20759282;28;20044;-74
2021/12/02 04:25:16;;;;;;;2.60;0.52;;;15.20;46.70;;;;;;20742880;28;20125;-75
2021/12/02 04:35:17;;;;;;;0.40;0.15;;;15.20;46.70;;;;;;20742003;28;20041;-74
2021/12/02 04:45:18;;;;;;;2.95;0.50;;;15.10;46.70;;;;;;20740952;28;20037;-74
2021/12/02 04:55:20;;;;;;;4.03;0.55;;;15.10;46.70;;;;;;20756687;28;20033;-74
2021/12/02 05:05:22;;;;;;;0.93;0.32;;;15.10;46.70;;;;;;20737735;28;20049;-77
2021/12/02 05:15:22;;;;;;;1.23;0.55;;;15.20;46.40;;;;;;20654295;28;20049;-73
2021/12/02 05:25:23;;;;;;;2.35;0.30;;;16.30;44.40;;;;;;20669260;28;20030;-74
2021/12/02 05:35:24;;;;;;;0.25;0.20;;;17.30;42.60;;;;;;20666440;28;20046;-74
2021/12/02 05:45:24;;;;;;;1.20;0.55;;;18.60;40.30;;;;;;20674355;28;20044;-73
2021/12/02 05:55:25;;;;;;;1.15;0.40;;;19.60;38.50;;;;;;20686818;28;20524;-73
2021/12/02 06:05:26;;;;;;;1.48;0.32;;;20.10;37.60;;;;;;20728445;28;20026;-73
2021/12/02 06:15:27;;;;;;;0.38;0.30;;;20.30;37.20;;;;;;20727519;28;20087;-74
2021/12/02 06:35:31;;;;;;;1.25;0.38;;;20.40;36.50;;;;;;20728880;28;20045;-74
2021/12/02 06:45:32;;;;;;;3.30;0.40;;;19.40;37.80;;;;;;20735203;28;20030;-73
2021/12/02 06:55:32;;;;;;;1.98;0.63;;;18.40;39.30;;;;;;20712520;28;20050;-70
2021/12/02 07:05:34;;;;;;;2.08;0.60;;;17.40;40.80;;;;;;20704785;28;20668;-71
2021/12/02 07:15:42;;;;;;;1.15;0.50;;;16.80;42.30;;;;;;20710616;28;20049;-72
2021/12/02 07:25:43;;;;;;;3.33;0.57;;;16.30;43.20;;;;;;20720763;28;20503;-72
2021/12/02 07:35:43;;;;;;;1.10;0.60;;;16.10;43.90;;;;;;20710365;28;20121;-70
2021/12/02 07:45:44;;;;;;;1.58;0.50;;;15.90;44.50;;;;;;20719769;28;20110;-71
2021/12/02 07:55:45;;;;;;;0.30;0.20;;;15.80;44.70;;;;;;20704702;28;20038;-70
2021/12/02 08:05:46;;;;;;;0.88;0.40;;;15.80;45.60;;;;;;20719299;28;20037;-70
2021/12/02 08:15:46;;;;;;;0.73;0.50;;;15.70;45.20;;;;;;20703982;28;20054;-71
2021/12/02 08:25:47;;;;;;;2.20;0.55;;;15.80;45.30;;;;;;20700420;28;20041;-70
2021/12/02 08:35:48;;;;;;;1.02;0.45;;;15.80;45.20;;;;;;20718019;28;20052;-70
2021/12/02 08:45:49;;;;;;;2.90;0.55;;;15.80;45.10;;;;;;20699220;28;20477;-71
2021/12/02 08:55:49;;;;;;;0.90;0.57;;;15.90;45.10;;;;;;20711791;28;20042;-71
2021/12/02 09:05:50;;;;;;;1.80;0.70;;;15.90;45.00;;;;;;20782042;28;20026;-71
2021/12/02 09:15:50;;;;;;;2.22;0.73;;;15.90;44.90;;;;;;20795856;28;20307;-71
2021/12/02 09:25:51;;;;;;;2.60;0.85;;;15.80;45.20;;;;;;20772037;28;20040;-71
2021/12/02 09:35:52;;;;;;;1.55;0.45;;;15.80;45.10;;;;;;20778367;28;20132;-72
2021/12/02 09:45:52;;;;;;;2.67;0.40;;;15.90;44.80;;;;;;20792549;28;20036;-72
2021/12/02 10:06:17;;;;;;;4.60;0.60;;;15.90;44.60;;;;;;20740412;28;20133;-73
2021/12/02 10:26:23;;;;;;;1.48;0.43;;;15.80;44.40;;;;;;20706573;28;20038;-71
2021/12/02 10:36:25;;;;;;;3.45;0.70;;;15.80;44.40;;;;;;20705505;28;20034;-70
2021/12/02 10:46:26;;;;;;;0.55;0.30;;;15.80;44.30;;;;;;20704592;28;20539;-70
2021/12/02 10:56:31;;;;;;;0.22;0.20;;;15.70;44.20;;;;;;20706676;28;20091;-71
2021/12/02 11:06:45;;;;;;;2.23;0.53;;;15.70;44.10;;;;;;20703600;28;20933;-71
2021/12/02 11:16:45;;;;;;;1.48;0.50;;;15.70;44.20;;;;;;21091418;22;20208;-72
2021/12/02 11:26:47;;;;;;;1.30;0.70;;;15.60;44.40;;;;;;20714358;28;20050;-75
2021/12/02 11:36:48;;;;;;;0.47;0.47;;;15.70;44.20;;;;;;20755341;28;20045;-78
2021/12/02 11:46:48;;;;;;;1.38;0.50;;;15.70;44.20;;;;;;20785932;28;20033;-75
2021/12/02 11:56:49;;;;;;;3.22;0.50;;;15.60;44.10;;;;;;20758600;28;20045;-75
2021/12/02 12:06:54;;;;;;;0.45;0.30;;;15.60;44.10;;;;;;20754189;28;20057;-78
2021/12/02 12:17:11;;;;;;;1.48;0.95;;;15.60;44.10;;;;;;20768061;28;20599;-82
2021/12/02 12:27:20;;;;;;;2.00;0.57;;;15.60;44.10;;;;;;20739347;28;20411;-79
2021/12/02 12:47:50;;;;;;;2.30;0.30;;;15.50;43.90;;;;;;20797564;28;20030;-76
2021/12/02 12:58:13;;;;;;;2.65;0.70;;;15.50;43.90;;;;;;20735590;28;20049;-77
2021/12/02 13:08:29;;;;;;;1.45;0.63;;;15.50;43.80;;;;;;20716581;28;20030;-76
2021/12/02 13:18:31;;;;;;;1.40;0.43;;;15.50;43.90;;;;;;20715906;28;20046;-76
2021/12/02 13:28:34;;;;;;;0.85;0.38;;;15.40;43.90;;;;;;20715474;28;20030;-78
2021/12/02 13:38:35;;;;;;;0.75;0.38;;;15.40;44.00;;;;;;20715120;28;20057;-74
2021/12/02 13:48:35;;;;;;;3.40;0.70;;;15.30;44.10;;;;;;20792858;28;20104;-75
2021/12/02 13:58:36;;;;;;;4.32;0.68;;;15.30;44.20;;;;;;20777302;28;20507;-74
2021/12/02 14:08:38;;;;;;;0.88;0.57;;;15.20;44.30;;;;;;20729258;28;20107;-74
2021/12/02 14:18:38;;;;;;;1.67;0.70;;;15.20;44.40;;;;;;20735167;28;20068;-75
2021/12/02 14:28:42;;;;;;;0.75;0.43;;;15.20;44.60;;;;;;20749406;28;20037;-75
2021/12/02 14:39:03;;;;;;;0.68;0.38;;;15.10;45.30;;;;;;20741619;28;20117;-75
2021/12/02 14:49:07;;;;;;;1.23;0.55;;;15.10;44.80;;;;;;20718667;28;20503;-72
2021/12/02 14:59:19;;;;;;;2.10;0.73;;;15.00;44.80;;;;;;20755648;28;20425;-73
2021/12/02 15:09:34;;;;;;;1.38;0.65;;;15.00;45.10;;;;;;20642920;28;20548;-72
2021/12/02 15:19:40;;;;;;;1.08;0.75;;;14.90;45.20;;;;;;20799152;28;20033;-75
2021/12/02 15:29:51;;;;;;;1.13;0.57;;;14.80;45.20;;;;;;20629686;28;20062;-74
2021/12/02 15:39:52;;;;;;;1.80;0.75;;;14.80;45.50;;;;;;20694133;28;20324;-74
2021/12/02 15:50:05;;;;;;;2.90;0.75;;;15.40;44.50;;;;;;20669478;28;20506;-76
2021/12/02 16:00:13;;;;;;;2.30;1.13;;;17.10;41.80;;;;;;20692811;28;20034;-84
2021/12/02 16:20:32;;;;;;;2.03;1.05;;;19.60;37.10;;;;;;20725106;28;20029;-81
2021/12/02 16:30:37;;;;;;;5.45;1.65;;;20.00;36.10;;;;;;20737681;28;20121;-80
2021/12/02 16:40:37;;;;;;;4.55;1.27;;;20.20;35.50;;;;;;20711064;28;20030;-80
2021/12/02 16:50:39;;;;;;;3.97;1.80;;;20.40;35.10;;;;;;20746331;28;20041;-82
2021/12/02 17:00:44;;;;;;;3.28;1.67;;;19.70;35.70;;;;;;20778197;28;20280;-80
2021/12/02 17:10:51;;;;;;;3.73;1.63;;;18.80;36.90;;;;;;20741730;28;20104;-80
2021/12/02 17:20:52;;;;;;;2.97;1.73;;;18.00;38.10;;;;;;20684354;28;20029;-78
2021/12/02 17:30:53;;;;;;;4.43;1.70;;;17.50;38.90;;;;;;20705559;28;20526;-82
2021/12/02 17:40:54;;;;;;;4.60;1.47;;;17.20;39.60;;;;;;20661582;28;20037;-77
2021/12/02 17:50:55;;;;;;;2.88;1.42;;;16.90;40.10;;;;;;20714414;28;20667;-76
2021/12/02 18:00:56;;;;;;;7.28;3.28;;;16.60;40.50;;;;;;20697776;28;20523;-73
2021/12/02 18:10:56;;;;;;;5.43;3.20;;;16.40;41.10;;;;;;20730453;28;20069;-81
2021/12/02 18:20:57;;;;;;;4.50;2.53;;;16.20;41.40;;;;;;20695234;28;20463;-80
2021/12/02 18:30:58;;;;;;;6.72;2.65;;;16.10;41.60;;;;;;20648805;28;20139;-79
2021/12/02 18:40:59;;;;;;;4.68;2.33;;;16.00;41.80;;;;;;20736644;28;20737;-80
2021/12/02 18:51:00;;;;;;;3.90;2.03;;;16.10;42.00;;;;;;20779630;28;20167;-81
2021/12/02 19:01:02;;;;;;;2.35;1.75;;;16.10;41.80;;;;;;20746519;28;20022;-80
2021/12/02 19:31:46;;;;;;;4.10;2.03;;;16.10;41.80;;;;;;20698632;28;20085;-82
2021/12/02 19:41:54;;;;;;;4.07;2.10;;;16.00;41.80;;;;;;20715293;28;20034;-81
2021/12/02 19:51:55;;;;;;;3.10;1.80;;;16.00;41.90;;;;;;20742366;28;20357;-81
2021/12/02 20:01:56;;;;;;;4.60;1.70;;;16.00;42.00;;;;;;20727208;28;20042;-82
2021/12/02 20:12:02;;;;;;;2.97;1.75;;;15.90;42.00;;;;;;20727204;28;20556;-80
2021/12/02 20:22:04;;;;;;;2.30;1.37;;;15.90;42.10;;;;;;20709595;28;20037;-81
2021/12/02 20:32:05;;;;;;;1.88;1.25;;;15.90;42.20;;;;;;20709121;28;20801;-80
2021/12/02 20:42:06;;;;;;;4.63;1.70;;;15.90;42.30;;;;;;20708013;28;20045;-81
2021/12/02 20:52:07;;;;;;;2.30;1.10;;;15.80;42.40;;;;;;20703751;28;20121;-80
2021/12/02 21:02:08;;;;;;;2.97;1.75;;;15.80;42.50;;;;;;20633149;28;20034;-81
2021/12/02 21:12:15;;;;;;;5.28;2.00;;;15.80;42.60;;;;;;20709467;28;20130;-80
2021/12/02 21:22:18;;;;;;;2.70;1.63;;;15.80;42.60;;;;;;20732854;28;20034;-81
2021/12/02 21:32:19;;;;;;;2.00;1.25;;;15.80;42.70;;;;;;20634458;28;20046;-80
2021/12/02 21:42:26;;;;;;;1.90;1.23;;;15.70;42.70;;;;;;20642670;28;20038;-80
2021/12/02 21:52:27;;;;;;;1.75;1.00;;;15.70;42.80;;;;;;20674456;28;20038;-82
2021/12/02 22:02:27;;;;;;;1.93;1.27;;;15.70;42.80;;;;;;20637345;28;20049;-80
2021/12/02 22:12:28;;;;;;;2.13;1.20;;;15.60;42.80;;;;;;20635751;28;20301;-80
2021/12/02 22:22:29;;;;;;;4.80;1.20;;;15.60;42.90;;;;;;20636154;28;20033;-81
2021/12/02 22:32:29;;;;;;;2.47;1.17;;;15.50;43.40;;;;;;20603077;28;20046;-80
2021/12/02 22:42:30;;;;;;;2.65;1.50;;;15.50;42.70;;;;;;20616719;28;20035;-81
2021/12/02 22:52:31;;;;;;;2.25;1.23;;;15.50;42.60;;;;;;20617213;28;20137;-80
2021/12/02 23:02:32;;;;;;;2.13;1.10;;;15.50;42.60;;;;;;20617009;28;20105;-80
2021/12/02 23:12:32;;;;;;;3.17;1.40;;;15.40;42.60;;;;;;20648587;28;20046;-80
2021/12/02 23:22:33;;;;;;;2.95;1.17;;;15.40;42.70;;;;;;20632308;28;20038;-80
2021/12/02 23:32:34;;;;;;;1.88;0.88;;;15.40;42.70;;;;;;20600120;28;20045;-80
2021/12/02 23:42:34;;;;;;;2.25;1.10;;;15.40;42.70;;;;;;20615073;28;20465;-80
2021/12/02 23:52:37;;;;;;;3.00;1.35;;;15.40;42.70;;;;;;20709983;28;20042;-80
